Time;durP1;ratioP1;P1;durP2;ratioP2;P2;SDS_P1;SDS_P2;PMS_P1;PMS_P2;Temp;Humidity;BMP_temperature;BMP_pressure;BME280_temperature;BME280_humidity;BME280_pressure;Samples;Min_cycle;Max_cycle;Signal;HPM_P1;HPM_P2
2022/05/11 00:04:12;;;;;;;;;;;18.00;1.00;;;;;;10248544;28;84207;-55
2022/05/11 00:09:13;;;;;;;;;;;17.90;1.00;;;;;;10248953;28;84013;-53
2022/05/11 00:14:14;;;;;;;;;;;17.90;99.90;;;;;;10230815;28;84371;-56
2022/05/11 00:19:16;;;;;;;;;;;17.90;99.90;;;;;;10248311;28;84793;-55
2022/05/11 00:24:17;;;;;;;;;;;17.80;99.90;;;;;;10247936;28;84267;-56
2022/05/11 00:29:17;;;;;;;;;;;17.80;1.00;;;;;;10247047;28;84226;-55
2022/05/11 00:34:18;;;;;;;;;;;17.70;1.00;;;;;;10248256;28;84126;-55
2022/05/11 00:39:19;;;;;;;;;;;17.70;1.00;;;;;;10229811;28;84183;-58
2022/05/11 00:44:20;;;;;;;;;;;17.60;1.00;;;;;;10247940;28;85054;-55
2022/05/11 00:49:34;;;;;;;;;;;17.60;1.00;;;;;;10246319;28;84911;-56
2022/05/11 00:54:37;;;;;;;;;;;17.70;1.00;;;;;;10248495;28;84163;-54
2022/05/11 00:59:40;;;;;;;;;;;17.70;1.00;;;;;;10246154;28;84574;-56
2022/05/11 01:04:42;;;;;;;;;;;17.60;1.00;;;;;;10248736;28;84881;-56
2022/05/11 01:09:43;;;;;;;;;;;17.60;99.90;;;;;;10243919;28;85093;-53
2022/05/11 01:14:44;;;;;;;;;;;17.60;99.90;;;;;;10242516;28;84179;-57
2022/05/11 01:19:46;;;;;;;;;;;17.50;99.90;;;;;;10246013;28;84999;-56
2022/05/11 01:24:47;;;;;;;;;;;17.40;99.90;;;;;;10246291;28;84794;-57
2022/05/11 01:29:48;;;;;;;;;;;17.40;99.90;;;;;;10245707;28;85175;-57
2022/05/11 01:34:50;;;;;;;;;;;17.40;99.90;;;;;;10246793;28;84123;-55
2022/05/11 01:39:51;;;;;;;;;;;17.30;99.90;;;;;;10227586;28;85297;-54
2022/05/11 01:44:51;;;;;;;;;;;17.30;99.90;;;;;;10245755;28;84035;-56
2022/05/11 01:49:52;;;;;;;;;;;17.20;99.90;;;;;;10244806;28;84219;-55
2022/05/11 01:54:52;;;;;;;;;;;17.20;1.00;;;;;;10244629;28;85200;-56
2022/05/11 01:59:53;;;;;;;;;;;17.20;1.00;;;;;;10225355;28;87317;-54
2022/05/11 02:10:13;;;;;;;;;;;17.20;1.00;;;;;;10244917;28;84025;-57
2022/05/11 02:15:14;;;;;;;;;;;17.10;1.00;;;;;;10245407;28;84411;-54
2022/05/11 02:20:16;;;;;;;;;;;17.10;1.00;;;;;;10244125;28;84072;-53
2022/05/11 02:25:17;;;;;;;;;;;17.10;1.00;;;;;;10244728;28;84104;-56
2022/05/11 02:30:22;;;;;;;;;;;17.10;1.00;;;;;;10243837;28;84191;-54
2022/05/11 02:35:23;;;;;;;;;;;17.10;1.00;;;;;;10244332;28;84029;-54
2022/05/11 02:40:28;;;;;;;;;;;17.10;1.00;;;;;;10227443;28;84350;-54
2022/05/11 02:45:30;;;;;;;;;;;17.10;1.00;;;;;;10204032;28;85321;-52
2022/05/11 02:50:35;;;;;;;;;;;17.10;99.90;;;;;;10228410;28;84027;-53
2022/05/11 02:55:36;;;;;;;;;;;17.00;99.90;;;;;;10244665;28;85064;-53
2022/05/11 03:00:37;;;;;;;;;;;16.90;99.90;;;;;;10233750;28;87171;-56
2022/05/11 03:05:38;;;;;;;;;;;16.90;1.00;;;;;;10250445;28;84180;-51
2022/05/11 03:10:39;;;;;;;;;;;16.90;1.00;;;;;;10206433;28;86938;-55
2022/05/11 03:15:41;;;;;;;;;;;16.90;1.00;;;;;;10250071;28;84145;-53
2022/05/11 03:20:42;;;;;;;;;;;16.80;1.00;;;;;;10249396;28;84966;-55
2022/05/11 03:25:42;;;;;;;;;;;16.90;1.00;;;;;;10210305;28;84906;-51
2022/05/11 03:30:43;;;;;;;;;;;16.90;1.00;;;;;;10208384;28;84755;-54
2022/05/11 03:35:43;;;;;;;;;;;16.90;1.00;;;;;;10248716;28;84207;-54
2022/05/11 03:40:44;;;;;;;;;;;16.80;1.00;;;;;;10249083;28;84229;-57
2022/05/11 03:45:45;;;;;;;;;;;16.90;1.00;;;;;;10249206;28;85397;-56
2022/05/11 03:50:46;;;;;;;;;;;16.90;99.90;;;;;;10248982;28;85323;-55
2022/05/11 03:55:47;;;;;;;;;;;16.90;99.90;;;;;;10249328;28;84894;-56
2022/05/11 04:00:47;;;;;;;;;;;17.00;99.90;;;;;;10307353;22;85848;-63
2022/05/11 04:05:48;;;;;;;;;;;17.00;99.90;;;;;;10330370;28;84091;-62
2022/05/11 04:10:48;;;;;;;;;;;17.00;99.90;;;;;;10311419;28;85005;-60
2022/05/11 04:15:50;;;;;;;;;;;17.00;99.90;;;;;;10291028;28;84878;-60
2022/05/11 04:20:51;;;;;;;;;;;17.00;99.90;;;;;;10292145;28;84888;-60
2022/05/11 04:25:51;;;;;;;;;;;17.10;99.90;;;;;;10290188;28;84941;-62
2022/05/11 04:30:59;;;;;;;;;;;17.10;99.90;;;;;;10289685;28;84158;-61
2022/05/11 04:36:01;;;;;;;;;;;17.10;99.90;;;;;;10291211;28;84152;-59
2022/05/11 04:41:01;;;;;;;;;;;17.20;99.90;;;;;;10272004;28;86047;-60
2022/05/11 04:46:02;;;;;;;;;;;17.20;99.90;;;;;;10290838;28;84392;-59
2022/05/11 04:51:03;;;;;;;;;;;17.30;99.90;;;;;;10289517;28;85013;-60
2022/05/11 04:56:03;;;;;;;;;;;17.40;99.90;;;;;;10286838;28;84249;-60
2022/05/11 05:01:04;;;;;;;;;;;17.50;99.90;;;;;;10290177;28;84286;-52
2022/05/11 05:06:05;;;;;;;;;;;17.50;99.90;;;;;;10288221;28;84944;-61
2022/05/11 05:11:05;;;;;;;;;;;17.60;99.90;;;;;;10289527;28;84992;-59
2022/05/11 05:16:06;;;;;;;;;;;17.60;99.90;;;;;;10288999;28;84878;-59
2022/05/11 05:21:06;;;;;;;;;;;17.70;99.90;;;;;;10289364;28;84081;-60
2022/05/11 05:26:07;;;;;;;;;;;17.80;99.90;;;;;;10272606;28;84923;-58
2022/05/11 05:31:09;;;;;;;;;;;17.90;99.90;;;;;;10288921;28;84848;-60
2022/05/11 05:36:10;;;;;;;;;;;17.90;99.90;;;;;;10290962;28;84397;-59
2022/05/11 05:41:11;;;;;;;;;;;17.90;99.90;;;;;;10291360;28;84165;-60
2022/05/11 05:46:14;;;;;;;;;;;17.90;99.90;;;;;;10291212;28;84276;-59
2022/05/11 05:51:15;;;;;;;;;;;17.80;99.90;;;;;;10291873;28;84326;-61
2022/05/11 05:56:16;;;;;;;;;;;17.70;99.90;;;;;;10305725;28;84977;-62
2022/05/11 06:01:16;;;;;;;;;;;17.90;99.90;;;;;;10295229;28;84995;-60
2022/05/11 06:06:18;;;;;;;;;;;18.20;99.90;;;;;;10291564;28;84390;-60
2022/05/11 06:11:18;;;;;;;;;;;18.40;92.20;;;;;;10289879;28;84243;-62
2022/05/11 06:16:19;;;;;;;;;;;18.60;11.80;;;;;;10292467;28;84187;-63
2022/05/11 06:21:19;;;;;;;;;;;18.90;1.00;;;;;;10297281;28;84800;-63
2022/05/11 06:26:21;;;;;;;;;;;19.10;1.00;;;;;;10284620;28;85968;-58
2022/05/11 06:31:23;;;;;;;;;;;19.30;1.00;;;;;;10308228;28;85136;-62
2022/05/11 06:36:23;;;;;;;;;;;19.50;1.00;;;;;;10308792;28;84033;-64
2022/05/11 06:41:25;;;;;;;;;;;19.70;1.00;;;;;;10308248;28;84058;-61
2022/05/11 06:46:26;;;;;;;;;;;19.70;99.90;;;;;;10307413;28;84067;-60
2022/05/11 06:51:26;;;;;;;;;;;20.00;99.90;;;;;;10273224;28;86932;-61
2022/05/11 07:01:50;;;;;;;;;;;20.40;1.00;;;;;;10305683;28;84662;-62
2022/05/11 07:06:52;;;;;;;;;;;20.60;1.00;;;;;;10289721;28;84938;-62
2022/05/11 07:17:11;;;;;;;;;;;21.70;99.90;;;;;;10308451;28;84159;-64
2022/05/11 07:22:12;;;;;;;;;;;22.40;1.00;;;;;;10305332;28;84802;-63
2022/05/11 07:27:12;;;;;;;;;;;22.90;99.90;;;;;;10290202;28;86105;-64
2022/05/11 07:32:13;;;;;;;;;;;22.90;99.90;;;;;;10307556;28;84115;-64
2022/05/11 07:37:14;;;;;;;;;;;23.50;1.00;;;;;;10307286;28;85465;-64
2022/05/11 07:42:15;;;;;;;;;;;24.00;32.70;;;;;;10305184;28;84830;-64
2022/05/11 07:47:16;;;;;;;;;;;24.20;1.00;;;;;;10305955;28;84722;-63
2022/05/11 07:52:16;;;;;;;;;;;24.80;1.00;;;;;;10305528;28;83981;-62
2022/05/11 08:02:39;;;;;;;;;;;24.90;1.00;;;;;;10305979;28;83959;-64
2022/05/11 08:07:42;;;;;;;;;;;25.00;1.00;;;;;;10306287;28;84368;-62
2022/05/11 08:12:43;;;;;;;;;;;25.20;1.00;;;;;;10307179;28;84030;-64
2022/05/11 08:17:44;;;;;;;;;;;25.50;1.00;;;;;;10306870;28;84021;-62
2022/05/11 08:22:45;;;;;;;;;;;25.40;1.00;;;;;;10307228;28;84130;-64
2022/05/11 08:27:46;;;;;;;;;;;25.40;99.90;;;;;;10291035;28;85545;-61
2022/05/11 08:38:06;;;;;;;;;;;26.40;1.00;;;;;;10305158;28;84068;-62
2022/05/11 08:43:10;;;;;;;;;;;25.90;99.90;;;;;;10310035;28;84966;-64
2022/05/11 08:48:16;;;;;;;;;;;26.50;1.00;;;;;;10311380;28;85392;-65
2022/05/11 08:53:18;;;;;;;;;;;26.70;1.00;;;;;;10304585;28;85681;-63
2022/05/11 08:58:22;;;;;;;;;;;26.80;1.00;;;;;;10302037;28;84448;-61
2022/05/11 09:03:31;;;;;;;;;;;27.10;1.00;;;;;;10278847;28;84946;-63
2022/05/11 09:08:34;;;;;;;;;;;28.40;1.00;;;;;;10294519;28;84735;-63
2022/05/11 09:13:37;;;;;;;;;;;29.20;99.90;;;;;;10297381;28;84215;-63
2022/05/11 09:18:39;;;;;;;;;;;29.20;99.90;;;;;;10300966;28;84096;-65
2022/05/11 09:23:41;;;;;;;;;;;29.40;1.00;;;;;;10298121;28;84197;-63
2022/05/11 09:28:42;;;;;;;;;;;29.50;1.00;;;;;;10297405;28;84245;-64
2022/05/11 09:33:57;;;;;;;;;;;29.30;1.00;;;;;;10295530;28;84099;-63
2022/05/11 09:39:05;;;;;;;;;;;30.10;1.00;;;;;;10293932;28;84473;-63
2022/05/11 09:44:35;;;;;;;;;;;31.00;99.90;;;;;;10293897;28;84017;-63
2022/05/11 09:49:37;;;;;;;;;;;31.10;99.90;;;;;;10265814;28;85056;-63
2022/05/11 09:54:38;;;;;;;;;;;30.60;99.90;;;;;;10293830;28;84385;-64
2022/05/11 09:59:40;;;;;;;;;;;30.50;99.90;;;;;;10302118;22;86861;-57
2022/05/11 10:04:48;;;;;;;;;;;30.10;99.90;;;;;;10326596;28;84767;-56
2022/05/11 10:09:54;;;;;;;;;;;31.70;99.90;;;;;;10326768;28;84150;-55
2022/05/11 10:25:39;;;;;;;;;;;30.10;1.00;;;;;;10327694;28;84395;-55
2022/05/11 10:31:12;;;;;;;;;;;30.80;1.00;;;;;;10325910;28;84136;-54
2022/05/11 10:36:18;;;;;;;;;;;30.10;1.00;;;;;;10282523;28;84806;-55
2022/05/11 10:41:29;;;;;;;;;;;30.50;1.00;;;;;;10326214;28;84250;-57
2022/05/11 10:46:45;;;;;;;;;;;31.10;1.00;;;;;;10326653;28;84082;-56
2022/05/11 10:52:05;;;;;;;;;;;30.50;1.00;;;;;;10308091;28;84174;-56
2022/05/11 10:57:14;;;;;;;;;;;30.80;1.00;;;;;;10324599;28;84076;-54
2022/05/11 11:02:22;;;;;;;;;;;31.60;1.00;;;;;;10325372;28;84834;-57
2022/05/11 11:07:26;;;;;;;;;;;31.90;1.00;;;;;;10326416;28;84993;-56
2022/05/11 11:12:31;;;;;;;;;;;32.00;1.00;;;;;;10326240;28;84856;-57
2022/05/11 11:17:32;;;;;;;;;;;32.00;1.00;;;;;;10333483;28;84314;-56
2022/05/11 11:22:51;;;;;;;;;;;32.10;1.00;;;;;;10332625;28;84835;-58
2022/05/11 11:28:09;;;;;;;;;;;32.20;1.00;;;;;;10315988;28;86038;-56
2022/05/11 11:33:10;;;;;;;;;;;31.00;1.00;;;;;;10332742;28;84818;-56
2022/05/11 11:38:23;;;;;;;;;;;31.30;1.00;;;;;;10331593;28;84659;-56
2022/05/11 11:43:40;;;;;;;;;;;32.20;1.00;;;;;;10313886;28;84155;-54
2022/05/11 11:48:42;;;;;;;;;;;31.70;1.00;;;;;;10331616;28;85191;-57
2022/05/11 11:53:52;;;;;;;;;;;31.90;1.00;;;;;;10313940;28;85239;-56
2022/05/11 11:59:03;;;;;;;;;;;32.40;1.00;;;;;;10331214;28;84954;-55
2022/05/11 12:04:06;;;;;;;;;;;32.90;1.00;;;;;;10331607;28;85886;-54
2022/05/11 12:20:17;;;;;;;;;;;31.50;1.00;;;;;;10330973;28;84970;-54
2022/05/11 12:25:26;;;;;;;;;;;31.40;1.00;;;;;;10326539;28;84384;-56
2022/05/11 12:30:32;;;;;;;;;;;32.00;1.00;;;;;;10311972;28;85778;-56
2022/05/11 12:35:37;;;;;;;;;;;31.70;1.00;;;;;;10330596;28;84833;-56
2022/05/11 12:40:42;;;;;;;;;;;31.80;1.00;;;;;;10312347;28;85472;-54
2022/05/11 12:45:46;;;;;;;;;;;32.00;1.00;;;;;;10330487;28;84061;-56
2022/05/11 12:50:49;;;;;;;;;;;31.50;1.00;;;;;;10312153;28;86858;-58
2022/05/11 12:55:52;;;;;;;;;;;32.10;1.00;;;;;;10330243;28;84716;-56
2022/05/11 13:00:59;;;;;;;;;;;32.60;1.00;;;;;;10330074;28;84129;-56
2022/05/11 13:06:02;;;;;;;;;;;32.60;1.00;;;;;;10329387;28;84108;-53
2022/05/11 13:11:04;;;;;;;;;;;32.40;1.00;;;;;;10329013;28;84099;-54
2022/05/11 13:16:06;;;;;;;;;;;32.70;1.00;;;;;;10328198;28;84378;-54
2022/05/11 13:21:08;;;;;;;;;;;32.20;1.00;;;;;;10327408;28;85225;-55
2022/05/11 13:26:10;;;;;;;;;;;31.90;1.00;;;;;;10327991;28;84916;-54
2022/05/11 13:31:26;;;;;;;;;;;32.60;1.00;;;;;;10327068;28;84091;-55
2022/05/11 13:36:28;;;;;;;;;;;32.90;1.00;;;;;;10326772;28;84046;-55
2022/05/11 13:41:30;;;;;;;;;;;32.40;1.00;;;;;;10326731;28;84619;-55
2022/05/11 13:48:11;;;;;;;;;;;32.30;1.00;;;;;;10327196;28;84876;-54
2022/05/11 13:52:00;;;;;;;;;;;32.90;1.00;;;;;;10326185;28;85094;-54
2022/05/11 13:57:24;;;;;;;;;;;32.70;1.00;;;;;;10326598;28;84878;-54
2022/05/11 14:02:28;;;;;;;;;;;32.40;1.00;;;;;;10314971;28;84315;-55
2022/05/11 14:07:29;;;;;;;;;;;32.30;1.00;;;;;;10326553;28;85279;-53
2022/05/11 14:12:30;;;;;;;;;;;31.80;1.00;;;;;;10291793;28;86414;-54
2022/05/11 14:17:34;;;;;;;;;;;31.20;1.00;;;;;;10308686;28;84185;-52
2022/05/11 14:22:38;;;;;;;;;;;30.20;1.00;;;;;;10308554;28;84109;-58
2022/05/11 14:27:39;;;;;;;;;;;29.30;1.00;;;;;;10326535;28;84934;-54
2022/05/11 14:32:44;;;;;;;;;;;28.50;1.00;;;;;;10307813;28;84801;-53
2022/05/11 14:37:45;;;;;;;;;;;28.40;1.00;;;;;;10326352;28;84761;-56
2022/05/11 14:42:46;;;;;;;;;;;28.10;1.00;;;;;;10326586;28;84663;-56
2022/05/11 14:47:55;;;;;;;;;;;27.90;1.00;;;;;;10326594;28;84152;-57
2022/05/11 14:52:56;;;;;;;;;;;27.60;1.00;;;;;;10333246;28;85109;-56
2022/05/11 15:03:17;;;;;;;;;;;27.60;1.00;;;;;;10332710;28;84885;-55
2022/05/11 15:08:18;;;;;;;;;;;27.10;1.00;;;;;;10315571;28;86883;-55
2022/05/11 15:13:30;;;;;;;;;;;27.20;1.00;;;;;;10332050;28;84168;-54
2022/05/11 15:18:31;;;;;;;;;;;26.90;1.00;;;;;;10332313;28;84169;-55
2022/05/11 15:23:31;;;;;;;;;;;26.70;1.00;;;;;;10331957;28;84832;-53
2022/05/11 15:28:32;;;;;;;;;;;26.60;1.00;;;;;;10328089;28;84977;-50
2022/05/11 15:33:33;;;;;;;;;;;26.60;1.00;;;;;;10297084;28;85277;-50
2022/05/11 15:38:34;;;;;;;;;;;26.40;1.00;;;;;;10311705;28;86436;-49
2022/05/11 15:43:35;;;;;;;;;;;26.20;1.00;;;;;;10310974;28;84476;-48
2022/05/11 15:48:36;;;;;;;;;;;26.20;1.00;;;;;;10330045;28;84212;-53
2022/05/11 15:53:36;;;;;;;;;;;26.20;1.00;;;;;;10329460;28;84070;-49
2022/05/11 15:58:37;;;;;;;;;;;26.00;1.00;;;;;;10310980;28;85922;-52
2022/05/11 16:03:38;;;;;;;;;;;25.90;1.00;;;;;;10310694;28;84534;-55
2022/05/11 16:08:39;;;;;;;;;;;25.90;1.00;;;;;;10329820;28;84102;-53
2022/05/11 16:13:39;;;;;;;;;;;25.90;1.00;;;;;;10311102;28;85249;-50
2022/05/11 16:23:59;;;;;;;;;;;25.70;1.00;;;;;;10293973;28;84797;-62
2022/05/11 16:29:00;;;;;;;;;;;25.70;1.00;;;;;;10278326;28;86111;-59
2022/05/11 16:34:01;;;;;;;;;;;25.60;1.00;;;;;;10294641;28;84238;-57
2022/05/11 16:39:02;;;;;;;;;;;25.60;1.00;;;;;;10296382;28;84819;-57
2022/05/11 16:44:03;;;;;;;;;;;25.50;1.00;;;;;;10298711;28;85214;-60
2022/05/11 16:49:03;;;;;;;;;;;25.30;1.00;;;;;;10288906;28;84169;-57
2022/05/11 16:54:04;;;;;;;;;;;25.10;1.00;;;;;;10297984;28;84256;-61
2022/05/11 16:59:05;;;;;;;;;;;25.10;1.00;;;;;;10285809;28;84335;-58
2022/05/11 17:04:06;;;;;;;;;;;25.00;1.00;;;;;;10282354;28;84888;-58
2022/05/11 17:09:08;;;;;;;;;;;24.90;1.00;;;;;;10279910;28;84424;-54
2022/05/11 17:14:09;;;;;;;;;;;24.80;1.00;;;;;;10275134;28;84054;-53
2022/05/11 17:19:10;;;;;;;;;;;24.70;1.00;;;;;;10293826;28;85958;-58
2022/05/11 17:24:11;;;;;;;;;;;24.50;1.00;;;;;;10292922;28;84730;-58
2022/05/11 17:29:12;;;;;;;;;;;24.40;1.00;;;;;;10285061;28;84332;-54
2022/05/11 17:34:14;;;;;;;;;;;24.40;1.00;;;;;;10282447;28;84679;-55
2022/05/11 17:39:16;;;;;;;;;;;24.40;1.00;;;;;;10259645;28;86019;-60
2022/05/11 17:44:16;;;;;;;;;;;24.30;34.00;;;;;;10270972;28;84234;-57
2022/05/11 17:49:17;;;;;;;;;;;24.30;99.90;;;;;;10285634;28;85883;-60
2022/05/11 17:54:18;;;;;;;;;;;24.20;99.90;;;;;;10278248;28;85471;-57
2022/05/11 17:59:18;;;;;;;;;;;24.00;99.90;;;;;;10281679;28;85892;-59
2022/05/11 18:04:19;;;;;;;;;;;24.00;99.90;;;;;;10278324;28;87388;-62
2022/05/11 18:09:19;;;;;;;;;;;23.80;99.90;;;;;;10283524;28;84884;-59
2022/05/11 18:14:21;;;;;;;;;;;23.80;1.00;;;;;;10277187;28;85087;-60
2022/05/11 18:19:22;;;;;;;;;;;23.60;1.00;;;;;;10267423;28;84354;-60
2022/05/11 18:24:22;;;;;;;;;;;23.50;1.00;;;;;;10289209;28;84280;-57
2022/05/11 18:29:23;;;;;;;;;;;23.30;1.00;;;;;;10279671;28;84940;-54
2022/05/11 18:34:23;;;;;;;;;;;23.20;1.00;;;;;;10258865;28;84296;-61
2022/05/11 18:39:26;;;;;;;;;;;23.10;99.90;;;;;;10288056;28;86943;-57
2022/05/11 18:44:27;;;;;;;;;;;23.00;99.90;;;;;;10285262;28;84106;-58
2022/05/11 18:49:29;;;;;;;;;;;22.90;1.00;;;;;;10286824;28;84238;-57
2022/05/11 18:54:30;;;;;;;;;;;22.90;1.00;;;;;;10309515;28;84209;-60
2022/05/11 18:59:31;;;;;;;;;;;22.80;1.00;;;;;;10274336;28;84956;-62
2022/05/11 19:04:32;;;;;;;;;;;22.70;1.00;;;;;;10252373;28;85954;-60
2022/05/11 19:09:33;;;;;;;;;;;22.70;99.90;;;;;;10294278;28;84287;-58
2022/05/11 19:14:33;;;;;;;;;;;22.60;1.00;;;;;;10292165;28;85226;-58
2022/05/11 19:19:34;;;;;;;;;;;22.60;1.00;;;;;;10302895;28;84221;-60
2022/05/11 19:24:34;;;;;;;;;;;22.40;1.00;;;;;;10287116;28;84264;-62
2022/05/11 19:29:35;;;;;;;;;;;22.30;99.90;;;;;;10305783;28;84128;-56
2022/05/11 19:34:36;;;;;;;;;;;22.30;1.00;;;;;;10310424;28;83998;-61
2022/05/11 19:39:37;;;;;;;;;;;22.30;1.00;;;;;;10307842;28;84005;-61
2022/05/11 19:44:37;;;;;;;;;;;22.20;1.00;;;;;;10309092;28;84152;-62
2022/05/11 19:49:39;;;;;;;;;;;22.20;1.00;;;;;;10307570;28;84915;-62
2022/05/11 19:54:39;;;;;;;;;;;22.20;1.00;;;;;;10292141;28;84558;-60
2022/05/11 19:59:40;;;;;;;;;;;22.10;1.00;;;;;;10312852;28;84865;-63
2022/05/11 20:04:41;;;;;;;;;;;21.90;1.00;;;;;;10291339;28;84164;-60
2022/05/11 20:09:42;;;;;;;;;;;21.90;99.90;;;;;;10309909;28;84472;-61
2022/05/11 20:14:43;;;;;;;;;;;21.60;99.90;;;;;;10309636;28;85737;-60
2022/05/11 20:19:44;;;;;;;;;;;21.30;1.00;;;;;;10289492;28;84548;-57
2022/05/11 20:24:44;;;;;;;;;;;21.10;1.00;;;;;;10281106;28;84285;-59
2022/05/11 20:29:45;;;;;;;;;;;20.90;99.90;;;;;;10277185;28;86244;-58
2022/05/11 20:40:07;;;;;;;;;;;20.60;99.90;;;;;;10307914;28;85063;-58
2022/05/11 20:45:11;;;;;;;;;;;20.50;99.90;;;;;;10306598;28;84299;-55
2022/05/11 20:50:12;;;;;;;;;;;20.30;47.50;;;;;;10308129;28;84591;-56
2022/05/11 20:55:13;;;;;;;;;;;20.10;1.00;;;;;;10306821;28;84468;-59
2022/05/11 21:00:22;;;;;;;;;;;20.00;99.90;;;;;;10301798;28;84203;-61
2022/05/11 21:05:22;;;;;;;;;;;19.90;99.90;;;;;;10300162;28;84621;-60
2022/05/11 21:10:24;;;;;;;;;;;19.80;99.90;;;;;;10285468;28;85408;-57
2022/05/11 21:15:25;;;;;;;;;;;19.80;1.00;;;;;;10301951;28;84187;-59
2022/05/11 21:20:27;;;;;;;;;;;19.90;1.00;;;;;;10303011;28;85195;-54
2022/05/11 21:25:27;;;;;;;;;;;19.80;1.00;;;;;;10304401;28;83977;-58
2022/05/11 21:30:29;;;;;;;;;;;19.70;99.90;;;;;;10243882;28;84738;-58
2022/05/11 21:35:30;;;;;;;;;;;19.50;1.00;;;;;;10261294;28;84110;-58
2022/05/11 21:40:31;;;;;;;;;;;19.40;33.70;;;;;;10260248;28;85232;-58
2022/05/11 21:45:31;;;;;;;;;;;19.40;99.90;;;;;;10289534;28;84677;-59
2022/05/11 21:50:33;;;;;;;;;;;19.30;1.00;;;;;;10302673;28;84294;-61
2022/05/11 21:55:35;;;;;;;;;;;19.10;1.00;;;;;;10301167;28;85091;-57
2022/05/11 22:00:35;;;;;;;;;;;19.00;99.90;;;;;;10299773;28;85628;-58
2022/05/11 22:05:36;;;;;;;;;;;18.90;99.90;;;;;;10300859;28;84837;-59
2022/05/11 22:10:37;;;;;;;;;;;18.80;1.00;;;;;;10302729;28;84051;-60
2022/05/11 22:15:37;;;;;;;;;;;18.80;1.00;;;;;;10307316;22;84470;-49
2022/05/11 22:20:38;;;;;;;;;;;18.60;99.90;;;;;;10245698;28;84972;-49
2022/05/11 22:25:38;;;;;;;;;;;18.40;1.00;;;;;;10226732;28;86845;-51
2022/05/11 22:30:44;;;;;;;;;;;18.10;1.00;;;;;;10227433;28;85003;-52
2022/05/11 22:35:54;;;;;;;;;;;17.50;1.00;;;;;;10227352;28;84811;-51
2022/05/11 22:40:56;;;;;;;;;;;17.00;19.00;;;;;;10245219;28;84689;-54
2022/05/11 22:45:56;;;;;;;;;;;16.90;67.80;;;;;;10246192;28;84386;-48
2022/05/11 22:50:57;;;;;;;;;;;16.90;98.20;;;;;;10227599;28;85037;-50
2022/05/11 22:55:58;;;;;;;;;;;16.70;99.90;;;;;;10244894;28;84132;-51
2022/05/11 23:00:59;;;;;;;;;;;16.50;99.90;;;;;;10224825;28;84949;-48
2022/05/11 23:06:00;;;;;;;;;;;16.50;99.90;;;;;;10209824;28;85831;-49
2022/05/11 23:11:00;;;;;;;;;;;16.50;99.90;;;;;;10247001;28;85292;-50
2022/05/11 23:16:01;;;;;;;;;;;16.40;99.90;;;;;;10232862;28;86315;-49
2022/05/11 23:21:02;;;;;;;;;;;16.30;99.90;;;;;;10216870;28;84465;-50
2022/05/11 23:26:03;;;;;;;;;;;16.40;99.90;;;;;;10250559;28;85061;-50
2022/05/11 23:31:03;;;;;;;;;;;16.20;99.90;;;;;;10233448;28;84724;-50
2022/05/11 23:36:04;;;;;;;;;;;16.20;99.90;;;;;;10250494;28;84068;-51
2022/05/11 23:41:05;;;;;;;;;;;16.20;99.90;;;;;;10250325;28;84974;-50
2022/05/11 23:46:05;;;;;;;;;;;16.20;99.90;;;;;;10232200;28;85281;-50
2022/05/11 23:51:06;;;;;;;;;;;16.20;99.90;;;;;;10250206;28;84927;-52
2022/05/11 23:56:06;;;;;;;;;;;16.10;99.90;;;;;;10250480;28;84296;-47
